Pagina principale
METAR-TAF:

METAR-TAF

Aeroporti :

Aeroporto di Maun

Maun, Botswana

latitudine: 19-59S, longitudine: 023-25E, altezza: 945 m

Osservazione

Il bollettino è stato emesso 43 minuti fa, alle 20:00 UTC
Vento 5 kt da sud-est
Temperature 16°C
Umidità 45%
Pressione 1025 hPa
Visibilità 10 km o più
nessuna nube inferiore a 1500 m e nessun cumulonembo

METAR: FBMN 222000Z 13005KT CAVOK 16/04 Q1025

Ora: 22:43 (20:43 UTC)

Previsione

Il bollettino è stato emesso 8 ore e 43 minuti fa, alle 12:00 UTC
Previsione valida dal 22 alle 15 UTC al 22 alle 24 UTC
Vento 11 kt da sud-est
Visibilità 10 km o più
Nubi sparse ad un'altezza di 3000 ft

TAF: FBMN 221200Z 2215/2224 13011KT 9999 SCT030

Osservazioni e previsioni meteorologiche di più di 4000 aeroporti (messaggi METAR e TAF).

Le stazioni disponibili sono rappresentate dai dischi gialli e rossi sulla carta.

Puntare il mouse per vedere il nome della stazione.

Clicca sopra per visualizzare le osservazioni e previsioni meteorologiche.

Per cambiare la mappa : fare clic sui pulsanti verdi con una croce nera per ingrandire, il pulsante verde con un trattino per diminuire, o sulla freccia verde per le mappe adiacenti.


METAR-TAF: